Matucana, Peru
Current Conditions -  °F | °C
As of 3:00 AM on Saturday 20 Dec 2014 (Local Time) from SPIM Reporting Station
Overcast Overcast  
Wind Chill: 68°   Ceiling: 2100
Heat Index: 68°   Visibility: 6mi
Dew Point: 63°   Wind: 8mph
Humidity: 83%   Direction: 170°S
Pressure: 29.88"   Gusts: NA
Location:  11.85°S, 76.4°W
Report Text: SPIM 200800Z 17007KT 9999 OVC021 20/17 Q1012 NOSIG RMK PP000
Loading
Personal Weather Stations






























Interactive Weather Map New forecast layout! Learn more

10-Day Weather Forecast

Advertisements
Track Severe Weather on mobile